Time;durP1;ratioP1;P1;durP2;ratioP2;P2;SDS_P1;SDS_P2;PMS_P1;PMS_P2;Temp;Humidity;BMP_temperature;BMP_pressure;BME280_temperature;BME280_humidity;BME280_pressure;Samples;Min_cycle;Max_cycle;Signal;HPM_P1;HPM_P2
2022/09/13 00:01:55;;;;;;;3.70;2.60;;;18.10;99.90;;;;;;5018753;28;20049;-85
2022/09/13 00:04:21;;;;;;;4.32;2.95;;;18.10;99.90;;;;;;5017730;28;20033;-85
2022/09/13 00:06:46;;;;;;;3.03;2.70;;;18.10;99.90;;;;;;5028116;28;20033;-86
2022/09/13 00:09:12;;;;;;;2.97;2.53;;;18.00;99.90;;;;;;5017340;28;20036;-85
2022/09/13 00:11:38;;;;;;;3.25;2.80;;;18.00;99.90;;;;;;5014809;28;20022;-85
2022/09/13 00:14:03;;;;;;;5.47;2.80;;;18.00;99.90;;;;;;5010573;28;20036;-86
2022/09/13 00:16:30;;;;;;;5.07;2.67;;;18.00;99.90;;;;;;5016516;28;20026;-85
2022/09/13 00:18:56;;;;;;;3.13;2.58;;;18.00;99.90;;;;;;5007363;28;20066;-86
2022/09/13 00:21:23;;;;;;;5.13;2.55;;;18.00;99.90;;;;;;5022829;28;20032;-86
2022/09/13 00:23:51;;;;;;;2.97;2.58;;;18.00;99.90;;;;;;5007564;28;20028;-87
2022/09/13 00:26:20;;;;;;;3.55;3.00;;;18.00;99.90;;;;;;5015975;28;20030;-85
2022/09/13 00:28:50;;;;;;;3.13;2.53;;;18.00;99.90;;;;;;5009956;28;20044;-87
2022/09/13 00:31:16;;;;;;;3.58;2.78;;;18.00;99.90;;;;;;5016003;28;20033;-85
2022/09/13 00:33:42;;;;;;;3.63;2.92;;;18.00;99.90;;;;;;5004650;28;20087;-86
2022/09/13 00:36:10;;;;;;;5.72;2.38;;;18.00;99.90;;;;;;4991676;28;20046;-86
2022/09/13 00:38:39;;;;;;;3.17;2.60;;;17.90;99.90;;;;;;5024660;28;20030;-86
2022/09/13 00:41:09;;;;;;;3.78;2.67;;;17.90;99.90;;;;;;5010765;28;20060;-87
2022/09/13 00:43:56;;;;;;;4.00;2.75;;;17.90;99.90;;;;;;5011837;28;20026;-85
2022/09/13 00:46:24;;;;;;;3.97;2.33;;;17.90;99.90;;;;;;5007672;28;20399;-85
2022/09/13 00:48:54;;;;;;;5.10;3.05;;;17.90;99.90;;;;;;5009248;28;20022;-86
2022/09/13 00:51:19;;;;;;;4.03;3.05;;;17.90;99.90;;;;;;5011247;28;20045;-85
2022/09/13 00:53:50;;;;;;;5.20;2.88;;;17.90;99.90;;;;;;5025612;28;20017;-86
2022/09/13 00:56:32;;;;;;;4.68;2.47;;;17.90;99.90;;;;;;5018626;28;20030;-86
2022/09/13 00:59:09;;;;;;;6.05;2.60;;;17.90;99.90;;;;;;5010870;28;20037;-86
2022/09/13 01:01:46;;;;;;;4.72;2.63;;;17.90;99.90;;;;;;5022392;28;20018;-84
2022/09/13 01:04:12;;;;;;;3.90;2.78;;;17.90;99.90;;;;;;5015203;28;20081;-85
2022/09/13 01:06:39;;;;;;;3.45;2.90;;;17.90;99.90;;;;;;5018148;28;20045;-86
2022/09/13 01:09:05;;;;;;;3.53;3.13;;;17.90;99.90;;;;;;5021370;28;20136;-85
2022/09/13 01:11:54;;;;;;;4.43;2.85;;;17.90;99.90;;;;;;5008919;28;20026;-84
2022/09/13 01:14:22;;;;;;;3.50;2.75;;;17.90;99.90;;;;;;5017240;28;20112;-85
2022/09/13 01:16:49;;;;;;;3.53;2.45;;;17.90;99.90;;;;;;5011238;28;20068;-85
2022/09/13 01:19:14;;;;;;;3.70;3.00;;;17.90;99.90;;;;;;5012269;28;20431;-86
2022/09/13 01:22:11;;;;;;;3.15;2.63;;;17.90;99.90;;;;;;5006759;28;20030;-86
2022/09/13 01:24:46;;;;;;;5.43;2.63;;;17.90;99.90;;;;;;5020733;28;20029;-85
2022/09/13 01:27:35;;;;;;;6.15;3.03;;;17.90;99.90;;;;;;5028593;28;20028;-86
2022/09/13 01:30:07;;;;;;;4.65;3.05;;;17.80;99.90;;;;;;5013729;28;20014;-86
2022/09/13 01:32:47;;;;;;;3.30;2.70;;;17.90;99.90;;;;;;5019951;28;20024;-85
2022/09/13 01:35:25;;;;;;;4.10;3.28;;;17.80;99.90;;;;;;4998349;28;20586;-86
2022/09/13 01:37:53;;;;;;;5.75;3.00;;;17.80;99.90;;;;;;5017596;28;20509;-85
2022/09/13 01:40:47;;;;;;;2.80;2.50;;;17.80;99.90;;;;;;5013802;28;20084;-85
2022/09/13 01:43:34;;;;;;;5.63;2.88;;;17.80;99.90;;;;;;5032752;28;20037;-85
2022/09/13 01:46:08;;;;;;;3.60;2.50;;;17.80;99.90;;;;;;5011352;28;20164;-86
2022/09/13 01:48:52;;;;;;;3.65;2.47;;;17.80;99.90;;;;;;5016458;28;20086;-85
2022/09/13 01:51:58;;;;;;;4.25;2.90;;;17.80;99.90;;;;;;5016087;28;20117;-85
2022/09/13 01:54:52;;;;;;;3.60;2.45;;;17.70;99.90;;;;;;5014434;28;20056;-86
2022/09/13 01:57:28;;;;;;;3.63;3.30;;;17.80;99.90;;;;;;5013857;28;20514;-85
2022/09/13 02:00:08;;;;;;;4.13;2.95;;;17.70;99.90;;;;;;5013944;28;20438;-86
2022/09/13 02:03:28;;;;;;;4.15;3.25;;;17.70;99.90;;;;;;5028364;28;20598;-86
2022/09/13 02:06:00;;;;;;;3.10;2.80;;;17.70;99.90;;;;;;4985738;28;20031;-86
2022/09/13 02:08:36;;;;;;;5.10;2.30;;;17.70;99.90;;;;;;4992799;28;20113;-86
2022/09/13 02:11:09;;;;;;;3.60;2.60;;;17.70;99.90;;;;;;5014482;28;20487;-85
2022/09/13 02:13:59;;;;;;;6.57;3.13;;;17.70;99.90;;;;;;5016813;28;20468;-85
2022/09/13 02:16:32;;;;;;;4.78;2.55;;;17.70;99.90;;;;;;5006468;28;20041;-86
2022/09/13 02:19:05;;;;;;;4.57;2.55;;;17.60;99.90;;;;;;5019028;28;20026;-86
2022/09/13 02:21:38;;;;;;;5.28;2.72;;;17.60;99.90;;;;;;5000969;28;20066;-87
2022/09/13 02:24:09;;;;;;;6.80;2.85;;;17.60;99.90;;;;;;5023089;28;20033;-85
2022/09/13 02:26:39;;;;;;;4.18;2.88;;;17.60;99.90;;;;;;5007132;28;20026;-85
2022/09/13 02:29:11;;;;;;;4.97;2.80;;;17.60;99.90;;;;;;5020768;28;20034;-86
2022/09/13 02:31:43;;;;;;;3.72;3.17;;;17.60;99.90;;;;;;5017178;28;20021;-87
2022/09/13 02:34:17;;;;;;;3.58;2.70;;;17.70;99.90;;;;;;5012952;28;20030;-85
2022/09/13 02:36:44;;;;;;;3.78;2.83;;;17.70;99.90;;;;;;5006640;28;20045;-85
2022/09/13 02:39:15;;;;;;;6.75;3.03;;;17.70;99.90;;;;;;5024121;28;20210;-86
2022/09/13 02:42:01;;;;;;;5.25;3.22;;;17.70;99.90;;;;;;5003867;28;20511;-86
2022/09/13 02:44:36;;;;;;;3.70;2.78;;;17.70;99.90;;;;;;5004364;28;20072;-85
2022/09/13 02:47:37;;;;;;;4.93;2.88;;;17.70;99.90;;;;;;5007982;28;20071;-85
2022/09/13 02:50:24;;;;;;;3.47;3.05;;;17.70;99.90;;;;;;5020945;28;20090;-86
2022/09/13 02:53:26;;;;;;;4.40;3.30;;;17.70;99.90;;;;;;5010584;28;20381;-87
2022/09/13 02:56:04;;;;;;;4.85;2.75;;;17.70;99.90;;;;;;5000617;28;20022;-87
2022/09/13 02:58:49;;;;;;;4.55;3.25;;;17.70;99.90;;;;;;5016752;28;20034;-85
2022/09/13 03:01:14;;;;;;;3.85;2.63;;;17.70;99.90;;;;;;5015556;28;20642;-86
2022/09/13 03:03:40;;;;;;;3.72;3.10;;;17.70;99.90;;;;;;5013670;28;20045;-86
2022/09/13 03:06:08;;;;;;;8.25;2.97;;;17.70;99.90;;;;;;5009679;28;20810;-87
2022/09/13 03:08:36;;;;;;;4.85;3.42;;;17.70;99.90;;;;;;5011419;28;20022;-85
2022/09/13 03:11:22;;;;;;;3.20;2.80;;;17.60;99.90;;;;;;5003372;28;20080;-86
2022/09/13 03:13:50;;;;;;;5.07;2.97;;;17.60;99.90;;;;;;5015261;28;20029;-86
2022/09/13 03:16:22;;;;;;;5.85;3.40;;;17.60;99.90;;;;;;5015971;28;20439;-85
2022/09/13 03:19:15;;;;;;;5.88;3.13;;;17.60;99.90;;;;;;5019179;28;20025;-85
2022/09/13 03:21:59;;;;;;;5.00;3.20;;;17.70;99.90;;;;;;5002568;28;20041;-87
2022/09/13 03:25:05;;;;;;;4.30;3.00;;;17.70;99.90;;;;;;5014231;28;20411;-86
2022/09/13 03:27:39;;;;;;;3.83;2.85;;;17.70;99.90;;;;;;5017206;28;20101;-86
2022/09/13 03:30:06;;;;;;;;;;;17.60;99.90;;;;;;5014828;28;20073;-85
2022/09/13 03:32:56;;;;;;;7.90;3.42;;;17.60;99.90;;;;;;5037051;28;19955;-87
2022/09/13 03:35:40;;;;;;;4.65;2.95;;;17.60;99.90;;;;;;5178547;22;20510;-77
2022/09/13 03:38:18;;;;;;;7.50;2.80;;;17.60;99.90;;;;;;5003790;28;20038;-77
2022/09/13 03:40:51;;;;;;;6.50;2.63;;;17.60;99.90;;;;;;5029869;28;20535;-77
2022/09/13 03:43:21;;;;;;;3.08;2.78;;;17.60;99.90;;;;;;5012650;28;20034;-77
2022/09/13 03:45:55;;;;;;;5.75;2.78;;;17.60;99.90;;;;;;5012154;28;20033;-77
2022/09/13 03:48:22;;;;;;;4.10;3.00;;;17.60;99.90;;;;;;5010855;28;20087;-77
2022/09/13 03:50:49;;;;;;;3.40;3.05;;;17.60;99.90;;;;;;5012288;28;20094;-76
2022/09/13 03:53:22;;;;;;;3.78;2.85;;;17.60;99.90;;;;;;5004381;28;20034;-76
2022/09/13 03:55:48;;;;;;;4.07;2.83;;;17.50;99.90;;;;;;5012627;28;20064;-76
2022/09/13 03:58:16;;;;;;;3.45;2.90;;;17.50;99.90;;;;;;5013053;28;20069;-76
2022/09/13 04:00:43;;;;;;;4.50;2.88;;;17.50;99.90;;;;;;5012130;28;20022;-76
2022/09/13 04:03:09;;;;;;;4.22;3.20;;;17.50;99.90;;;;;;5011134;28;20490;-77
2022/09/13 04:05:35;;;;;;;6.50;2.97;;;17.50;99.90;;;;;;5012427;28;20161;-76
2022/09/13 04:08:04;;;;;;;4.45;3.13;;;17.50;99.90;;;;;;5000605;28;20113;-76
2022/09/13 04:10:34;;;;;;;3.78;3.33;;;17.50;99.90;;;;;;5006332;28;20381;-76
2022/09/13 04:13:00;;;;;;;5.00;3.28;;;17.40;99.90;;;;;;5020212;28;20033;-77
2022/09/13 04:15:27;;;;;;;4.43;3.15;;;17.30;99.90;;;;;;5010819;28;20061;-76
2022/09/13 04:17:53;;;;;;;8.40;3.72;;;17.30;99.90;;;;;;5020810;28;20359;-77
2022/09/13 04:20:19;;;;;;;8.13;3.33;;;17.30;99.90;;;;;;5015274;28;20033;-76
2022/09/13 04:22:52;;;;;;;6.65;3.10;;;17.30;99.90;;;;;;5024697;28;20026;-76
2022/09/13 04:25:19;;;;;;;5.35;3.45;;;17.40;99.90;;;;;;5015957;28;20100;-77
2022/09/13 04:27:45;;;;;;;3.28;2.65;;;17.40;99.90;;;;;;5001511;28;20038;-76
2022/09/13 04:30:11;;;;;;;5.60;3.47;;;17.40;99.90;;;;;;5005816;28;20026;-76
2022/09/13 04:32:37;;;;;;;5.75;3.67;;;17.40;99.90;;;;;;5010804;28;20030;-76
2022/09/13 04:35:03;;;;;;;3.95;2.85;;;17.50;99.90;;;;;;5008769;28;20386;-76
2022/09/13 04:37:28;;;;;;;3.65;2.90;;;17.50;99.90;;;;;;4989777;28;20042;-77
2022/09/13 04:39:54;;;;;;;4.28;3.13;;;17.50;99.90;;;;;;5009715;28;20030;-77
2022/09/13 04:42:20;;;;;;;4.35;2.50;;;17.50;99.90;;;;;;5014266;28;20378;-77
2022/09/13 04:44:48;;;;;;;4.63;2.58;;;17.50;99.90;;;;;;5012552;28;20025;-77
2022/09/13 04:47:14;;;;;;;3.60;2.92;;;17.50;99.90;;;;;;5012716;28;20030;-77
2022/09/13 04:49:40;;;;;;;2.65;2.10;;;17.50;99.90;;;;;;5013311;28;20549;-77
2022/09/13 04:52:06;;;;;;;5.53;2.67;;;17.50;99.90;;;;;;5013898;28;20474;-76
2022/09/13 04:54:32;;;;;;;6.35;3.35;;;17.50;99.90;;;;;;5007792;28;20482;-77
2022/09/13 04:56:58;;;;;;;3.53;2.60;;;17.50;99.90;;;;;;5013949;28;20033;-77
2022/09/13 04:59:24;;;;;;;5.30;2.75;;;17.60;99.90;;;;;;5006610;28;20501;-76
2022/09/13 05:01:50;;;;;;;3.92;2.80;;;17.50;99.90;;;;;;5006116;28;20025;-76
2022/09/13 05:04:16;;;;;;;4.20;3.40;;;17.60;99.90;;;;;;5015958;28;20026;-77
2022/09/13 05:06:41;;;;;;;5.32;2.88;;;17.50;99.90;;;;;;5006382;28;20026;-77
2022/09/13 05:09:12;;;;;;;4.28;2.42;;;17.50;99.90;;;;;;5005558;28;20137;-76
2022/09/13 05:11:38;;;;;;;5.45;2.83;;;17.50;99.90;;;;;;5013904;28;20033;-76
2022/09/13 05:14:04;;;;;;;4.15;2.80;;;17.50;99.90;;;;;;5011651;28;20030;-77
2022/09/13 05:16:32;;;;;;;6.43;2.90;;;17.50;99.90;;;;;;5012590;28;20036;-77
2022/09/13 05:18:59;;;;;;;6.00;2.75;;;17.50;99.90;;;;;;4999369;28;20438;-76
2022/09/13 05:21:26;;;;;;;4.05;3.25;;;17.50;99.90;;;;;;4997171;28;20117;-77
2022/09/13 05:23:53;;;;;;;4.78;2.75;;;17.50;99.90;;;;;;5005931;28;20026;-76
2022/09/13 05:26:20;;;;;;;4.90;2.70;;;17.50;99.90;;;;;;5006440;28;20034;-77
2022/09/13 05:28:46;;;;;;;3.33;2.85;;;17.50;99.90;;;;;;5006237;28;20027;-77
2022/09/13 05:31:14;;;;;;;5.05;3.25;;;17.50;99.90;;;;;;5007191;28;20026;-76
2022/09/13 05:33:40;;;;;;;4.15;3.35;;;17.50;99.90;;;;;;4995867;28;20018;-77
2022/09/13 05:36:06;;;;;;;6.70;2.85;;;17.50;99.90;;;;;;5003328;28;20247;-76
2022/09/13 05:38:32;;;;;;;3.15;2.72;;;17.50;99.90;;;;;;5011546;28;20032;-76
2022/09/13 05:41:02;;;;;;;4.32;3.30;;;17.50;99.90;;;;;;4998509;28;20030;-76
2022/09/13 05:43:30;;;;;;;4.07;2.60;;;17.50;99.90;;;;;;5017265;28;20409;-77
2022/09/13 05:46:06;;;;;;;5.43;3.35;;;17.50;99.90;;;;;;5011607;28;20026;-76
2022/09/13 05:48:34;;;;;;;4.15;2.90;;;17.50;99.90;;;;;;5006974;28;20026;-77
2022/09/13 05:51:13;;;;;;;4.70;2.90;;;17.50;99.90;;;;;;4992990;28;20046;-76
2022/09/13 05:53:40;;;;;;;4.57;3.33;;;17.50;99.90;;;;;;5011956;28;20386;-76
2022/09/13 05:56:11;;;;;;;4.50;2.63;;;17.50;99.90;;;;;;5005831;28;20018;-76
2022/09/13 05:58:42;;;;;;;3.60;3.10;;;17.50;99.90;;;;;;5003630;28;20040;-77
2022/09/13 06:01:09;;;;;;;7.32;3.33;;;17.50;99.90;;;;;;5008144;28;20087;-76
2022/09/13 06:03:35;;;;;;;6.65;3.30;;;17.50;99.90;;;;;;5011252;28;20385;-77
2022/09/13 06:06:02;;;;;;;6.20;3.15;;;17.50;99.90;;;;;;5003747;28;20363;-77
2022/09/13 06:08:29;;;;;;;8.32;3.05;;;17.50;99.90;;;;;;5011643;28;20026;-77
2022/09/13 06:10:56;;;;;;;4.22;3.05;;;17.40;99.90;;;;;;5011883;28;20501;-76
2022/09/13 06:13:23;;;;;;;3.30;2.97;;;17.30;99.90;;;;;;5002840;28;20104;-77
2022/09/13 06:15:49;;;;;;;3.42;2.83;;;17.40;99.90;;;;;;5008837;28;20023;-76
2022/09/13 06:18:16;;;;;;;4.80;3.00;;;17.40;99.90;;;;;;4998278;28;20040;-76
2022/09/13 06:20:42;;;;;;;3.03;2.70;;;17.40;99.90;;;;;;5008059;28;20022;-77
2022/09/13 06:23:08;;;;;;;8.82;2.70;;;17.50;99.90;;;;;;5005306;28;20025;-76
2022/09/13 06:25:34;;;;;;;3.42;2.47;;;17.50;99.90;;;;;;5014149;28;20372;-76
2022/09/13 06:27:59;;;;;;;4.30;3.05;;;17.50;99.90;;;;;;5005870;28;20026;-77
2022/09/13 06:30:25;;;;;;;3.92;2.50;;;17.50;99.90;;;;;;5006798;28;20613;-76
2022/09/13 06:32:51;;;;;;;3.47;2.78;;;17.50;99.90;;;;;;4996878;28;20026;-77
2022/09/13 06:35:17;;;;;;;3.42;2.75;;;17.50;99.90;;;;;;4997080;28;20038;-77
2022/09/13 06:37:43;;;;;;;5.38;3.10;;;17.60;99.90;;;;;;4990954;28;20568;-76
2022/09/13 06:40:09;;;;;;;4.78;3.15;;;17.60;99.90;;;;;;5007830;28;20520;-76
2022/09/13 06:42:35;;;;;;;2.90;2.60;;;17.60;99.90;;;;;;5001714;28;20041;-76
2022/09/13 06:45:02;;;;;;;2.97;2.42;;;17.60;99.90;;;;;;5011259;28;20022;-77
2022/09/13 06:47:27;;;;;;;7.20;3.03;;;17.60;99.90;;;;;;5008563;28;20049;-77
2022/09/13 06:49:53;;;;;;;5.72;2.60;;;17.60;99.90;;;;;;5026123;28;20462;-76
2022/09/13 06:52:19;;;;;;;4.13;2.83;;;17.60;99.90;;;;;;5011580;28;20107;-76
2022/09/13 06:54:45;;;;;;;6.18;2.50;;;17.60;99.90;;;;;;5013824;28;20049;-77
2022/09/13 06:57:10;;;;;;;3.22;2.70;;;17.60;99.90;;;;;;5004648;28;20471;-78
2022/09/13 06:59:36;;;;;;;5.20;2.83;;;17.60;99.90;;;;;;5012852;28;20124;-76
2022/09/13 07:02:02;;;;;;;4.38;3.17;;;17.60;99.90;;;;;;5004631;28;20025;-78
2022/09/13 07:04:31;;;;;;;3.33;2.42;;;17.60;99.90;;;;;;5005069;28;20036;-76
2022/09/13 07:06:58;;;;;;;5.05;2.45;;;17.60;99.90;;;;;;5008595;28;20026;-78
2022/09/13 07:09:25;;;;;;;4.03;3.20;;;17.60;99.90;;;;;;5018668;28;20030;-77
2022/09/13 07:11:53;;;;;;;4.13;3.00;;;17.60;99.90;;;;;;5003201;28;20026;-77
2022/09/13 07:14:24;;;;;;;4.28;2.83;;;17.60;99.90;;;;;;5003022;28;20459;-76
2022/09/13 07:16:50;;;;;;;6.50;3.22;;;17.60;99.90;;;;;;5007343;28;20033;-78
2022/09/13 07:19:19;;;;;;;5.50;3.40;;;17.60;99.90;;;;;;5024878;28;20485;-77
2022/09/13 07:21:45;;;;;;;4.32;3.38;;;17.40;99.90;;;;;;5027509;28;20037;-77
2022/09/13 07:24:11;;;;;;;5.30;3.78;;;17.50;99.90;;;;;;5006057;28;20018;-75
2022/09/13 07:26:37;;;;;;;5.10;3.70;;;17.40;99.90;;;;;;5010563;28;20045;-76
2022/09/13 07:29:06;;;;;;;6.65;3.50;;;17.50;99.90;;;;;;4996044;28;20027;-76
2022/09/13 07:31:41;;;;;;;8.95;3.67;;;17.40;99.90;;;;;;5010177;28;20501;-76
2022/09/13 07:34:12;;;;;;;7.65;3.85;;;17.40;99.90;;;;;;5009667;28;20149;-77
2022/09/13 07:36:38;;;;;;;5.45;3.70;;;17.40;99.90;;;;;;5006387;28;20026;-75
2022/09/13 07:39:05;;;;;;;7.82;3.53;;;17.40;99.90;;;;;;4989179;28;20045;-77
2022/09/13 07:41:32;;;;;;;4.68;3.78;;;17.40;99.90;;;;;;5003928;28;20026;-77
2022/09/13 07:44:01;;;;;;;9.20;3.70;;;17.50;99.90;;;;;;5010281;28;20760;-77
2022/09/13 07:46:31;;;;;;;5.32;3.72;;;17.50;99.90;;;;;;5013119;28;20402;-78
2022/09/13 07:48:57;;;;;;;6.15;3.67;;;17.50;99.90;;;;;;5012910;28;20247;-77
2022/09/13 07:51:26;;;;;;;6.13;3.65;;;17.60;99.90;;;;;;5012504;28;20048;-78
2022/09/13 07:53:55;;;;;;;4.43;3.35;;;17.60;99.90;;;;;;5009400;28;20091;-77
2022/09/13 07:56:23;;;;;;;8.05;3.25;;;17.60;99.90;;;;;;5009647;28;20390;-78
2022/09/13 07:58:51;;;;;;;4.80;2.70;;;17.60;99.90;;;;;;5000814;28;20050;-77
2022/09/13 08:01:26;;;;;;;4.82;3.38;;;17.70;99.90;;;;;;5012033;28;20034;-77
2022/09/13 08:04:00;;;;;;;5.82;3.60;;;17.70;99.90;;;;;;5009875;28;20467;-75
2022/09/13 08:06:28;;;;;;;6.00;2.70;;;17.70;99.90;;;;;;5011956;28;20482;-76
2022/09/13 08:08:58;;;;;;;5.32;3.55;;;17.80;99.90;;;;;;5000498;28;20034;-77
2022/09/13 08:11:29;;;;;;;4.03;3.30;;;17.80;99.90;;;;;;5027120;28;20030;-77
2022/09/13 08:13:55;;;;;;;6.53;4.00;;;17.80;99.90;;;;;;5001385;28;20033;-77
2022/09/13 08:16:23;;;;;;;4.10;3.20;;;17.80;99.90;;;;;;5033988;28;20033;-77
2022/09/13 08:18:52;;;;;;;6.13;3.80;;;17.90;99.90;;;;;;5005941;28;20033;-76
2022/09/13 08:21:18;;;;;;;8.88;4.45;;;17.90;99.90;;;;;;5013282;28;20030;-77
2022/09/13 08:23:44;;;;;;;5.88;3.22;;;18.00;99.90;;;;;;5013235;28;20034;-77
2022/09/13 08:26:10;;;;;;;5.15;3.67;;;18.00;99.90;;;;;;5005137;28;20029;-77
2022/09/13 08:28:39;;;;;;;5.55;3.70;;;18.00;99.90;;;;;;5020928;28;20025;-77
2022/09/13 08:31:07;;;;;;;5.05;3.97;;;18.00;99.90;;;;;;5013091;28;20029;-77
2022/09/13 08:33:33;;;;;;;5.15;3.90;;;18.10;99.90;;;;;;5001181;28;20018;-76
2022/09/13 08:35:59;;;;;;;8.27;4.68;;;18.10;99.90;;;;;;5006622;28;20037;-76
2022/09/13 08:38:24;;;;;;;6.03;3.75;;;18.10;99.90;;;;;;4985800;28;20379;-77
2022/09/13 08:40:55;;;;;;;6.97;3.92;;;18.20;99.90;;;;;;5005940;28;20049;-77
2022/09/13 08:43:45;;;;;;;5.45;4.50;;;18.20;99.90;;;;;;5009496;28;20034;-77
2022/09/13 08:46:10;;;;;;;5.22;3.72;;;18.30;99.90;;;;;;5026796;28;20066;-76
2022/09/13 08:48:43;;;;;;;6.35;3.05;;;18.30;99.90;;;;;;5019701;28;20493;-77
2022/09/13 08:51:23;;;;;;;4.13;3.30;;;18.30;99.90;;;;;;5012070;28;20029;-77
2022/09/13 08:53:50;;;;;;;6.05;3.35;;;18.40;99.90;;;;;;5030607;28;20033;-77
2022/09/13 08:56:52;;;;;;;5.45;3.30;;;18.30;99.90;;;;;;5007036;28;20034;-75
2022/09/13 08:59:33;;;;;;;3.78;2.80;;;18.40;99.90;;;;;;5010038;28;20038;-76
2022/09/13 09:02:01;;;;;;;6.93;2.72;;;18.40;99.90;;;;;;5006607;28;20415;-76
2022/09/13 09:04:37;;;;;;;4.03;3.08;;;18.40;99.90;;;;;;5009063;28;20408;-77
2022/09/13 09:07:12;;;;;;;5.47;3.85;;;18.40;99.90;;;;;;5010623;28;20029;-76
2022/09/13 09:09:49;;;;;;;6.25;3.20;;;18.40;99.90;;;;;;5012846;28;20056;-76
2022/09/13 09:12:43;;;;;;;3.90;3.05;;;18.50;99.90;;;;;;5005345;28;20030;-76
2022/09/13 09:15:32;;;;;;;7.70;2.90;;;18.50;99.90;;;;;;5003255;28;20034;-76
2022/09/13 09:18:25;;;;;;;5.40;3.25;;;18.50;99.90;;;;;;5002664;28;20390;-76
2022/09/13 09:20:55;;;;;;;5.95;2.83;;;18.60;99.90;;;;;;5014357;28;20054;-76
2022/09/13 09:23:34;;;;;;;4.40;2.55;;;18.60;99.90;;;;;;5007477;28;20399;-76
2022/09/13 09:26:18;;;;;;;4.00;2.15;;;18.60;99.90;;;;;;5003503;28;20033;-76
2022/09/13 09:28:59;;;;;;;3.25;2.70;;;18.60;99.90;;;;;;5019451;28;20032;-76
2022/09/13 09:31:47;;;;;;;3.03;2.42;;;18.70;99.90;;;;;;5007099;28;20030;-76
2022/09/13 09:34:30;;;;;;;4.40;3.60;;;18.70;99.90;;;;;;5009462;28;20485;-77
2022/09/13 09:37:13;;;;;;;3.75;2.58;;;18.70;99.90;;;;;;5010950;28;20030;-77
2022/09/13 09:39:43;;;;;;;3.60;2.42;;;18.70;99.90;;;;;;4997541;28;20402;-77
2022/09/13 09:42:16;;;;;;;6.15;2.60;;;18.80;99.90;;;;;;5006300;28;20026;-77
2022/09/13 09:44:45;;;;;;;4.33;3.40;;;18.80;99.90;;;;;;5006336;28;20030;-77
2022/09/13 09:47:31;;;;;;;4.75;2.85;;;18.80;99.90;;;;;;5018436;28;20077;-76
2022/09/13 09:50:08;;;;;;;2.65;2.30;;;18.80;99.90;;;;;;5007260;28;20453;-76
2022/09/13 09:52:38;;;;;;;2.97;2.40;;;18.90;99.90;;;;;;5009334;28;20112;-75
2022/09/13 09:55:19;;;;;;;3.42;2.72;;;18.90;99.90;;;;;;5017800;28;20022;-76
2022/09/13 09:58:07;;;;;;;7.97;2.97;;;18.90;99.90;;;;;;5009881;28;20124;-76
2022/09/13 10:00:35;;;;;;;4.03;2.42;;;18.90;99.90;;;;;;5015055;28;20022;-76
2022/09/13 10:03:15;;;;;;;2.92;2.63;;;18.90;99.90;;;;;;5006952;28;20026;-76
2022/09/13 10:05:42;;;;;;;4.70;2.38;;;19.00;99.90;;;;;;5004906;28;20033;-75
2022/09/13 10:08:30;;;;;;;4.47;1.95;;;19.00;99.90;;;;;;5005063;28;20049;-76
2022/09/13 10:11:00;;;;;;;4.80;2.08;;;19.00;99.90;;;;;;5006823;28;20018;-76
2022/09/13 10:13:28;;;;;;;3.13;2.00;;;19.00;99.90;;;;;;5005974;28;20510;-76
2022/09/13 10:16:00;;;;;;;2.92;2.20;;;19.00;99.90;;;;;;5004896;28;20026;-76
2022/09/13 10:18:28;;;;;;;3.17;2.30;;;19.00;99.90;;;;;;5000582;28;20058;-76
2022/09/13 10:21:03;;;;;;;5.68;2.25;;;19.10;99.90;;;;;;5009509;28;20026;-75
2022/09/13 10:23:30;;;;;;;4.80;2.22;;;19.10;99.90;;;;;;5003115;28;20042;-76
2022/09/13 10:25:58;;;;;;;2.60;2.00;;;19.10;99.90;;;;;;4995803;28;20044;-76
2022/09/13 10:28:25;;;;;;;3.08;2.10;;;19.10;99.90;;;;;;5020337;28;20038;-76
2022/09/13 10:31:01;;;;;;;3.25;2.20;;;19.20;99.90;;;;;;5006370;28;20359;-76
2022/09/13 10:33:29;;;;;;;3.63;2.90;;;19.20;99.90;;;;;;5005124;28;20482;-76
2022/09/13 10:35:59;;;;;;;3.70;2.78;;;19.30;99.90;;;;;;5005238;28;20049;-76
2022/09/13 10:38:29;;;;;;;4.22;3.00;;;19.30;99.90;;;;;;4977794;28;20429;-76
2022/09/13 10:40:56;;;;;;;4.95;2.95;;;19.30;99.90;;;;;;5008265;28;20034;-76
2022/09/13 10:43:23;;;;;;;6.40;3.53;;;19.30;99.90;;;;;;4999471;28;20487;-76
2022/09/13 10:45:50;;;;;;;5.25;2.55;;;19.30;99.90;;;;;;5017534;28;20049;-76
2022/09/13 10:48:19;;;;;;;7.43;2.50;;;19.30;99.90;;;;;;5005944;28;20033;-76
2022/09/13 10:51:15;;;;;;;2.72;2.25;;;19.40;99.90;;;;;;5007021;28;20022;-76
2022/09/13 10:53:41;;;;;;;4.35;2.25;;;19.40;99.90;;;;;;5014852;28;20026;-76
2022/09/13 10:56:24;;;;;;;2.85;1.77;;;19.40;99.90;;;;;;4999526;28;20034;-76
2022/09/13 10:58:50;;;;;;;4.47;2.33;;;19.40;99.90;;;;;;5004624;28;20039;-76
2022/09/13 11:01:37;;;;;;;3.13;2.13;;;19.50;99.90;;;;;;5002808;28;20033;-77
2022/09/13 11:04:40;;;;;;;2.95;1.88;;;19.40;99.90;;;;;;5006694;28;20544;-77
2022/09/13 11:07:39;;;;;;;2.13;1.70;;;19.50;99.90;;;;;;5020866;28;20026;-77
2022/09/13 11:10:30;;;;;;;1.65;1.42;;;19.50;99.90;;;;;;5022142;28;20030;-77
2022/09/13 11:13:52;;;;;;;3.22;2.28;;;19.50;99.90;;;;;;5003173;28;20098;-77
2022/09/13 11:16:41;;;;;;;4.30;2.65;;;19.50;99.90;;;;;;4989712;28;20130;-76
2022/09/13 11:19:28;;;;;;;4.72;2.97;;;19.60;99.90;;;;;;4965481;28;20696;-76
2022/09/13 11:22:15;;;;;;;6.05;2.53;;;19.60;99.90;;;;;;5012014;28;20038;-77
2022/09/13 11:24:46;;;;;;;5.03;2.70;;;19.60;99.90;;;;;;5021627;28;20053;-77
2022/09/13 11:27:44;;;;;;;3.55;2.25;;;19.60;99.90;;;;;;5007242;28;20031;-77
2022/09/13 11:30:17;;;;;;;3.88;2.78;;;19.60;99.90;;;;;;5004392;28;20489;-78
2022/09/13 11:33:02;;;;;;;2.78;2.30;;;19.60;99.90;;;;;;5009726;28;20029;-76
2022/09/13 11:35:27;;;;;;;3.85;2.35;;;19.60;99.90;;;;;;5005438;28;20040;-78
2022/09/13 11:38:12;;;;;;;5.28;2.72;;;19.60;99.90;;;;;;5006992;28;20033;-76
2022/09/13 11:40:51;;;;;;;4.80;3.00;;;19.70;99.90;;;;;;5013237;28;20094;-77
2022/09/13 11:43:36;;;;;;;3.63;2.60;;;19.70;99.90;;;;;;5008611;28;20061;-76
2022/09/13 11:46:26;;;;;;;3.88;2.47;;;19.70;99.90;;;;;;5009327;28;20350;-78
2022/09/13 11:49:04;;;;;;;4.97;3.38;;;19.70;99.90;;;;;;5011036;28;20082;-78
2022/09/13 11:51:29;;;;;;;4.03;2.55;;;19.80;99.90;;;;;;5010561;28;20030;-77
2022/09/13 11:54:05;;;;;;;4.38;2.50;;;19.70;99.90;;;;;;5008607;28;20015;-78
2022/09/13 11:56:34;;;;;;;5.38;2.25;;;19.80;99.90;;;;;;5012376;28;20061;-76
2022/09/13 11:59:27;;;;;;;5.40;2.45;;;19.80;99.90;;;;;;5010585;28;20097;-77
2022/09/13 12:02:00;;;;;;;8.80;2.83;;;19.80;99.90;;;;;;5002698;28;20022;-78
2022/09/13 12:04:54;;;;;;;7.53;3.03;;;19.80;99.90;;;;;;5008884;28;20037;-77
2022/09/13 12:08:04;;;;;;;4.20;2.50;;;19.80;99.90;;;;;;5025224;28;20076;-77
2022/09/13 12:10:50;;;;;;;5.18;2.58;;;19.80;99.90;;;;;;5017057;28;20028;-77
2022/09/13 12:13:24;;;;;;;9.32;3.15;;;19.80;99.90;;;;;;5005268;28;20367;-77
2022/09/13 12:16:15;;;;;;;4.47;3.03;;;19.90;99.90;;;;;;5014608;28;20026;-77
2022/09/13 12:18:50;;;;;;;3.15;2.70;;;20.00;99.90;;;;;;5013851;28;20026;-77
2022/09/13 12:21:21;;;;;;;4.30;2.63;;;20.00;99.90;;;;;;5017389;28;20038;-77
2022/09/13 12:24:00;;;;;;;9.45;3.00;;;20.00;99.90;;;;;;5006050;28;20124;-76
2022/09/13 12:26:51;;;;;;;3.10;2.28;;;20.10;99.90;;;;;;5022756;28;20113;-78
2022/09/13 12:29:27;;;;;;;5.85;2.88;;;20.10;99.90;;;;;;5010768;28;20042;-76
2022/09/13 12:31:58;;;;;;;5.70;2.97;;;20.10;99.90;;;;;;5020870;28;20026;-76
2022/09/13 12:34:45;;;;;;;4.82;3.05;;;20.10;99.90;;;;;;5005099;28;20033;-78
2022/09/13 12:37:45;;;;;;;6.13;3.08;;;20.10;99.90;;;;;;5014394;28;20034;-76
2022/09/13 12:42:58;;;;;;;7.18;3.55;;;20.10;99.90;;;;;;5011870;28;20049;-86
2022/09/13 12:45:37;;;;;;;4.72;3.00;;;20.20;99.90;;;;;;5035644;28;20443;-87
2022/09/13 12:48:22;;;;;;;5.07;2.50;;;20.20;99.90;;;;;;5050924;28;20037;-85
2022/09/13 12:51:09;;;;;;;3.08;2.20;;;20.20;99.90;;;;;;5031382;28;20101;-86
2022/09/13 12:53:56;;;;;;;3.15;2.20;;;20.30;99.90;;;;;;5012748;28;20030;-83
2022/09/13 12:56:46;;;;;;;4.50;2.78;;;20.30;99.90;;;;;;5014617;28;20060;-86
2022/09/13 13:00:00;;;;;;;3.00;1.95;;;20.30;99.90;;;;;;5030526;28;20036;-86
2022/09/13 13:02:33;;;;;;;3.15;2.20;;;20.40;99.90;;;;;;4994880;28;20049;-85
2022/09/13 13:05:01;;;;;;;;;;;20.40;99.90;;;;;;5015887;28;20075;-86
2022/09/13 13:07:29;;;;;;;8.75;2.40;;;20.40;99.90;;;;;;5016994;28;20299;-85
2022/09/13 13:09:56;;;;;;;4.05;2.17;;;20.40;99.90;;;;;;5003588;28;20053;-86
2022/09/13 13:12:29;;;;;;;4.88;2.00;;;20.50;99.90;;;;;;5019991;28;20037;-85
2022/09/13 13:14:55;;;;;;;3.38;2.10;;;20.50;99.90;;;;;;5016221;28;20044;-86
2022/09/13 13:17:39;;;;;;;3.13;2.33;;;20.50;99.90;;;;;;5037447;28;20033;-86
2022/09/13 13:20:43;;;;;;;5.32;2.75;;;20.60;99.90;;;;;;5024281;28;20491;-86
2022/09/13 13:23:27;;;;;;;3.20;2.25;;;20.60;99.90;;;;;;5018633;28;20128;-85
2022/09/13 13:26:01;;;;;;;3.38;2.10;;;20.60;99.90;;;;;;5029556;28;20028;-85